sensor_id;sensor_type;location;lat;lon;timestamp;pressure;altitude;pressure_sealevel;temperature;humidity
49979;BME280;35869;50.990;6.962;2023-04-15T00:04:53;100457.13;;;7.49;77.75
49979;BME280;35869;50.990;6.962;2023-04-15T00:09:54;100457.31;;;7.45;78.80
49979;BME280;35869;50.990;6.962;2023-04-15T00:14:54;100454.03;;;7.40;78.08
49979;BME280;35869;50.990;6.962;2023-04-15T00:19:54;100451.72;;;7.32;79.20
49979;BME280;35869;50.990;6.962;2023-04-15T00:24:55;100446.66;;;7.29;79.07
49979;BME280;35869;50.990;6.962;2023-04-15T00:29:55;100449.34;;;7.26;78.90
49979;BME280;35869;50.990;6.962;2023-04-15T00:34:55;100448.00;;;7.16;79.14
49979;BME280;35869;50.990;6.962;2023-04-15T00:39:55;100447.31;;;7.11;79.52
49979;BME280;35869;50.990;6.962;2023-04-15T00:44:55;100445.72;;;7.07;79.60
49979;BME280;35869;50.990;6.962;2023-04-15T00:49:56;100446.69;;;7.03;79.75
49979;BME280;35869;50.990;6.962;2023-04-15T00:54:56;100446.75;;;7.01;79.80
49979;BME280;35869;50.990;6.962;2023-04-15T00:59:57;100449.63;;;6.93;80.17
49979;BME280;35869;50.990;6.962;2023-04-15T01:04:57;100447.19;;;6.89;79.43
49979;BME280;35869;50.990;6.962;2023-04-15T01:09:57;100453.19;;;6.89;80.70
49979;BME280;35869;50.990;6.962;2023-04-15T01:14:58;100450.09;;;6.78;80.50
49979;BME280;35869;50.990;6.962;2023-04-15T01:19:59;100444.84;;;6.81;79.41
49979;BME280;35869;50.990;6.962;2023-04-15T01:25:10;100442.69;;;6.69;81.26
49979;BME280;35869;50.990;6.962;2023-04-15T01:30:11;100441.88;;;6.67;79.84
49979;BME280;35869;50.990;6.962;2023-04-15T01:35:11;100446.50;;;6.57;80.05
49979;BME280;35869;50.990;6.962;2023-04-15T01:40:11;100444.84;;;6.55;80.22
49979;BME280;35869;50.990;6.962;2023-04-15T01:45:12;100444.06;;;6.53;80.66
49979;BME280;35869;50.990;6.962;2023-04-15T01:50:12;100444.34;;;6.44;80.70
49979;BME280;35869;50.990;6.962;2023-04-15T01:55:12;100447.81;;;6.43;80.40
49979;BME280;35869;50.990;6.962;2023-04-15T02:00:13;100447.19;;;6.36;80.46
49979;BME280;35869;50.990;6.962;2023-04-15T02:05:13;100443.13;;;6.27;81.89
49979;BME280;35869;50.990;6.962;2023-04-15T02:10:14;100436.47;;;6.20;81.33
49979;BME280;35869;50.990;6.962;2023-04-15T02:15:14;100440.78;;;6.20;81.40
49979;BME280;35869;50.990;6.962;2023-04-15T02:20:15;100447.16;;;6.08;81.95
49979;BME280;35869;50.990;6.962;2023-04-15T02:25:15;100447.09;;;6.11;82.72
49979;BME280;35869;50.990;6.962;2023-04-15T02:30:16;100450.72;;;6.04;82.85
49979;BME280;35869;50.990;6.962;2023-04-15T02:35:16;100450.69;;;6.05;82.53
49979;BME280;35869;50.990;6.962;2023-04-15T02:40:17;100452.66;;;5.97;83.04
49979;BME280;35869;50.990;6.962;2023-04-15T02:45:17;100460.38;;;5.97;83.15
49979;BME280;35869;50.990;6.962;2023-04-15T02:50:17;100459.59;;;5.95;83.14
49979;BME280;35869;50.990;6.962;2023-04-15T02:55:17;100468.44;;;5.86;83.32
49979;BME280;35869;50.990;6.962;2023-04-15T03:00:18;100474.44;;;5.87;83.11
49979;BME280;35869;50.990;6.962;2023-04-15T03:05:18;100480.44;;;5.87;82.84
49979;BME280;35869;50.990;6.962;2023-04-15T03:10:19;100482.38;;;5.79;83.16
49979;BME280;35869;50.990;6.962;2023-04-15T03:15:19;100488.53;;;5.74;83.57
49979;BME280;35869;50.990;6.962;2023-04-15T03:20:19;100479.25;;;5.68;83.58
49979;BME280;35869;50.990;6.962;2023-04-15T03:25:20;100485.28;;;5.67;83.67
49979;BME280;35869;50.990;6.962;2023-04-15T03:30:20;100485.47;;;5.61;83.86
49979;BME280;35869;50.990;6.962;2023-04-15T03:35:20;100491.50;;;5.60;84.07
49979;BME280;35869;50.990;6.962;2023-04-15T03:40:20;100497.59;;;5.57;83.43
49979;BME280;35869;50.990;6.962;2023-04-15T03:45:20;100497.78;;;5.51;83.78
49979;BME280;35869;50.990;6.962;2023-04-15T03:50:21;100504.63;;;5.51;83.83
49979;BME280;35869;50.990;6.962;2023-04-15T03:55:21;100505.56;;;5.48;84.07
49979;BME280;35869;50.990;6.962;2023-04-15T04:00:21;100508.22;;;5.45;84.40
49979;BME280;35869;50.990;6.962;2023-04-15T04:05:21;100504.84;;;5.43;84.55
49979;BME280;35869;50.990;6.962;2023-04-15T04:10:22;100512.78;;;5.35;85.03
49979;BME280;35869;50.990;6.962;2023-04-15T04:15:22;100510.28;;;5.32;84.63
49979;BME280;35869;50.990;6.962;2023-04-15T04:20:22;100513.84;;;5.28;84.46
49979;BME280;35869;50.990;6.962;2023-04-15T04:25:23;100525.00;;;5.27;84.73
49979;BME280;35869;50.990;6.962;2023-04-15T04:30:23;100527.59;;;5.27;84.16
49979;BME280;35869;50.990;6.962;2023-04-15T04:35:23;100528.53;;;5.25;84.35
49979;BME280;35869;50.990;6.962;2023-04-15T04:40:23;100529.63;;;5.15;84.74
49979;BME280;35869;50.990;6.962;2023-04-15T04:45:24;100532.19;;;5.16;85.20
49979;BME280;35869;50.990;6.962;2023-04-15T04:50:24;100536.63;;;5.09;85.16
49979;BME280;35869;50.990;6.962;2023-04-15T04:55:24;100534.13;;;5.06;85.38
49979;BME280;35869;50.990;6.962;2023-04-15T05:00:24;100547.41;;;4.90;85.42
49979;BME280;35869;50.990;6.962;2023-04-15T05:05:25;100551.47;;;5.00;84.86
49979;BME280;35869;50.990;6.962;2023-04-15T05:10:25;100551.44;;;5.01;84.69
49979;BME280;35869;50.990;6.962;2023-04-15T05:15:25;100565.09;;;5.05;82.88
49979;BME280;35869;50.990;6.962;2023-04-15T05:20:25;100573.81;;;4.98;85.02
49979;BME280;35869;50.990;6.962;2023-04-15T05:25:25;100580.69;;;4.99;84.59
49979;BME280;35869;50.990;6.962;2023-04-15T05:30:26;100581.50;;;5.01;84.13
49979;BME280;35869;50.990;6.962;2023-04-15T05:35:26;100589.28;;;4.98;84.89
49979;BME280;35869;50.990;6.962;2023-04-15T05:40:26;100586.00;;;4.93;84.78
49979;BME280;35869;50.990;6.962;2023-04-15T05:45:27;100580.59;;;5.02;83.18
49979;BME280;35869;50.990;6.962;2023-04-15T05:50:27;100591.28;;;4.85;83.05
49979;BME280;35869;50.990;6.962;2023-04-15T05:55:27;100592.19;;;4.84;82.63
49979;BME280;35869;50.990;6.962;2023-04-15T06:00:28;100598.88;;;4.91;81.10
49979;BME280;35869;50.990;6.962;2023-04-15T06:05:28;100604.81;;;4.95;81.78
49979;BME280;35869;50.990;6.962;2023-04-15T06:10:28;100618.34;;;5.03;82.23
49979;BME280;35869;50.990;6.962;2023-04-15T06:15:29;100619.78;;;5.15;82.37
49979;BME280;35869;50.990;6.962;2023-04-15T06:20:29;100623.81;;;5.28;81.85
49979;BME280;35869;50.990;6.962;2023-04-15T06:25:29;100632.19;;;5.36;84.38
49979;BME280;35869;50.990;6.962;2023-04-15T06:30:29;100630.78;;;5.57;86.49
49979;BME280;35869;50.990;6.962;2023-04-15T06:35:30;100635.66;;;5.69;84.87
49979;BME280;35869;50.990;6.962;2023-04-15T06:40:30;100631.63;;;5.93;87.99
49979;BME280;35869;50.990;6.962;2023-04-15T06:45:30;100639.00;;;6.07;86.36
49979;BME280;35869;50.990;6.962;2023-04-15T06:50:31;100646.91;;;6.32;86.86
49979;BME280;35869;50.990;6.962;2023-04-15T06:55:31;100652.38;;;6.51;87.79
49979;BME280;35869;50.990;6.962;2023-04-15T07:00:31;100661.25;;;6.72;85.89
49979;BME280;35869;50.990;6.962;2023-04-15T07:05:32;100662.38;;;6.92;87.46
49979;BME280;35869;50.990;6.962;2023-04-15T07:10:33;100656.06;;;7.29;87.17
49979;BME280;35869;50.990;6.962;2023-04-15T07:15:33;100672.59;;;7.50;86.50
49979;BME280;35869;50.990;6.962;2023-04-15T07:20:33;100671.28;;;7.65;84.01
49979;BME280;35869;50.990;6.962;2023-04-15T07:25:34;100675.19;;;8.01;84.21
49979;BME280;35869;50.990;6.962;2023-04-15T07:30:34;100678.38;;;8.35;85.39
49979;BME280;35869;50.990;6.962;2023-04-15T07:35:34;100675.13;;;8.53;83.48
49979;BME280;35869;50.990;6.962;2023-04-15T07:40:35;100679.34;;;8.79;81.45
49979;BME280;35869;50.990;6.962;2023-04-15T07:45:35;100683.97;;;8.94;81.36
49979;BME280;35869;50.990;6.962;2023-04-15T07:50:35;100687.59;;;9.12;80.41
49979;BME280;35869;50.990;6.962;2023-04-15T07:55:35;100687.47;;;9.37;78.73
49979;BME280;35869;50.990;6.962;2023-04-15T08:00:36;100690.31;;;9.53;75.08
49979;BME280;35869;50.990;6.962;2023-04-15T08:05:36;100696.16;;;9.78;72.93
49979;BME280;35869;50.990;6.962;2023-04-15T08:10:36;100699.50;;;10.02;72.54
49979;BME280;35869;50.990;6.962;2023-04-15T08:15:36;100709.38;;;10.14;70.89
49979;BME280;35869;50.990;6.962;2023-04-15T08:20:37;100712.91;;;10.34;69.50
49979;BME280;35869;50.990;6.962;2023-04-15T08:25:37;100718.97;;;10.53;67.19
49979;BME280;35869;50.990;6.962;2023-04-15T08:30:37;100721.66;;;10.52;71.60
49979;BME280;35869;50.990;6.962;2023-04-15T08:35:37;100730.78;;;10.60;67.76
49979;BME280;35869;50.990;6.962;2023-04-15T08:40:43;100731.66;;;10.80;66.00
49979;BME280;35869;50.990;6.962;2023-04-15T08:45:44;100743.03;;;10.77;65.04
49979;BME280;35869;50.990;6.962;2023-04-15T08:50:46;100744.03;;;11.12;65.39
49979;BME280;35869;50.990;6.962;2023-04-15T08:55:51;100753.31;;;11.18;68.13
49979;BME280;35869;50.990;6.962;2023-04-15T09:00:51;100751.22;;;11.26;67.07
49979;BME280;35869;50.990;6.962;2023-04-15T09:05:51;100742.81;;;11.19;65.30
49979;BME280;35869;50.990;6.962;2023-04-15T09:10:52;100760.25;;;11.55;64.73
49979;BME280;35869;50.990;6.962;2023-04-15T09:15:53;100762.56;;;11.61;65.28
49979;BME280;35869;50.990;6.962;2023-04-15T09:20:53;100766.78;;;11.64;64.13
49979;BME280;35869;50.990;6.962;2023-04-15T09:25:53;100766.66;;;11.84;66.02
49979;BME280;35869;50.990;6.962;2023-04-15T09:30:55;100774.47;;;11.84;65.75
49979;BME280;35869;50.990;6.962;2023-04-15T09:36:00;100783.75;;;11.90;68.47
49979;BME280;35869;50.990;6.962;2023-04-15T09:41:00;100779.19;;;12.12;67.57
49979;BME280;35869;50.990;6.962;2023-04-15T09:46:01;100791.75;;;12.04;66.07
49979;BME280;35869;50.990;6.962;2023-04-15T09:51:06;100799.09;;;12.31;64.48
49979;BME280;35869;50.990;6.962;2023-04-15T09:56:31;100802.81;;;12.44;67.00
49979;BME280;35869;50.990;6.962;2023-04-15T10:01:31;100804.38;;;12.64;65.27
49979;BME280;35869;50.990;6.962;2023-04-15T10:06:45;100810.50;;;12.80;64.11
49979;BME280;35869;50.990;6.962;2023-04-15T10:11:53;100820.19;;;12.94;67.75
49979;BME280;35869;50.990;6.962;2023-04-15T10:16:55;100828.53;;;12.85;68.03
49979;BME280;35869;50.990;6.962;2023-04-15T10:21:55;100824.78;;;13.06;66.40
49979;BME280;35869;50.990;6.962;2023-04-15T10:26:56;100822.13;;;13.23;64.13
49979;BME280;35869;50.990;6.962;2023-04-15T10:31:56;100829.63;;;13.29;65.82
49979;BME280;35869;50.990;6.962;2023-04-15T10:37:01;100833.19;;;13.28;66.18
49979;BME280;35869;50.990;6.962;2023-04-15T10:42:12;100830.09;;;13.69;64.65
49979;BME280;35869;50.990;6.962;2023-04-15T10:47:19;100829.16;;;13.39;66.44
49979;BME280;35869;50.990;6.962;2023-04-15T10:52:24;100844.22;;;13.81;64.40
49979;BME280;35869;50.990;6.962;2023-04-15T10:57:33;100847.44;;;14.02;64.37
49979;BME280;35869;50.990;6.962;2023-04-15T11:02:51;100841.16;;;14.04;59.82
49979;BME280;35869;50.990;6.962;2023-04-15T11:07:53;100848.41;;;14.15;64.51
49979;BME280;35869;50.990;6.962;2023-04-15T11:13:00;100855.81;;;14.07;63.42
49979;BME280;35869;50.990;6.962;2023-04-15T11:18:23;100858.41;;;14.23;62.38
49979;BME280;35869;50.990;6.962;2023-04-15T11:28:39;100865.38;;;14.38;64.01
49979;BME280;35869;50.990;6.962;2023-04-15T11:33:53;100868.09;;;14.36;63.48
49979;BME280;35869;50.990;6.962;2023-04-15T11:38:54;100876.34;;;14.45;61.64
49979;BME280;35869;50.990;6.962;2023-04-15T11:43:56;100878.00;;;14.46;62.05
49979;BME280;35869;50.990;6.962;2023-04-15T11:48:56;100887.50;;;14.32;63.89
49979;BME280;35869;50.990;6.962;2023-04-15T11:53:56;100898.91;;;14.31;62.55
49979;BME280;35869;50.990;6.962;2023-04-15T11:58:57;100899.50;;;14.05;64.90
49979;BME280;35869;50.990;6.962;2023-04-15T12:03:58;100916.78;;;13.76;65.19
49979;BME280;35869;50.990;6.962;2023-04-15T12:09:14;100919.22;;;13.95;62.19
49979;BME280;35869;50.990;6.962;2023-04-15T12:19:23;100924.91;;;14.03;64.76
49979;BME280;35869;50.990;6.962;2023-04-15T12:24:23;100935.75;;;13.79;62.78
49979;BME280;35869;50.990;6.962;2023-04-15T12:29:25;100947.88;;;13.65;65.27
49979;BME280;35869;50.990;6.962;2023-04-15T12:39:29;100971.88;;;13.71;65.34
49979;BME280;35869;50.990;6.962;2023-04-15T12:44:30;100971.19;;;13.52;63.66
49979;BME280;35869;50.990;6.962;2023-04-15T12:49:31;100987.78;;;13.51;64.71
49979;BME280;35869;50.990;6.962;2023-04-15T12:54:31;100993.84;;;13.51;64.42
49979;BME280;35869;50.990;6.962;2023-04-15T12:59:31;101007.91;;;13.49;66.16
49979;BME280;35869;50.990;6.962;2023-04-15T13:04:32;101007.00;;;13.32;66.29
49979;BME280;35869;50.990;6.962;2023-04-15T13:09:32;101013.38;;;13.27;66.44
49979;BME280;35869;50.990;6.962;2023-04-15T13:14:32;101030.25;;;13.20;65.87
49979;BME280;35869;50.990;6.962;2023-04-15T13:19:32;101027.53;;;12.87;66.53
49979;BME280;35869;50.990;6.962;2023-04-15T13:24:33;101032.03;;;12.83;67.21
49979;BME280;35869;50.990;6.962;2023-04-15T13:29:33;101043.72;;;12.93;67.00
49979;BME280;35869;50.990;6.962;2023-04-15T13:34:33;101049.13;;;12.71;68.13
49979;BME280;35869;50.990;6.962;2023-04-15T13:39:33;101055.50;;;12.83;67.30
49979;BME280;35869;50.990;6.962;2023-04-15T13:44:34;101067.53;;;12.68;67.32
49979;BME280;35869;50.990;6.962;2023-04-15T13:49:34;101064.16;;;12.66;67.70
49979;BME280;35869;50.990;6.962;2023-04-15T13:54:34;101066.59;;;12.33;67.28
49979;BME280;35869;50.990;6.962;2023-04-15T13:59:34;101070.47;;;12.43;67.58
49979;BME280;35869;50.990;6.962;2023-04-15T14:04:34;101095.53;;;12.27;68.58
49979;BME280;35869;50.990;6.962;2023-04-15T14:09:35;101095.66;;;12.43;68.77
49979;BME280;35869;50.990;6.962;2023-04-15T14:14:35;101089.41;;;12.47;69.80
49979;BME280;35869;50.990;6.962;2023-04-15T14:19:36;101095.41;;;12.49;70.27
49979;BME280;35869;50.990;6.962;2023-04-15T14:24:40;101104.97;;;12.48;71.84
49979;BME280;35869;50.990;6.962;2023-04-15T14:29:40;101108.78;;;12.41;74.52
49979;BME280;35869;50.990;6.962;2023-04-15T14:34:40;101106.53;;;12.34;74.61
49979;BME280;35869;50.990;6.962;2023-04-15T14:39:40;101106.81;;;12.27;73.06
49979;BME280;35869;50.990;6.962;2023-04-15T14:44:40;101114.97;;;12.20;74.37
49979;BME280;35869;50.990;6.962;2023-04-15T14:49:41;101127.56;;;12.10;74.37
49979;BME280;35869;50.990;6.962;2023-04-15T14:54:41;101123.16;;;11.92;75.63
49979;BME280;35869;50.990;6.962;2023-04-15T14:59:41;101140.22;;;11.77;74.53
49979;BME280;35869;50.990;6.962;2023-04-15T15:04:41;101139.03;;;11.86;75.15
49979;BME280;35869;50.990;6.962;2023-04-15T15:09:42;101146.91;;;12.05;75.77
49979;BME280;35869;50.990;6.962;2023-04-15T15:14:42;101154.47;;;11.90;76.39
49979;BME280;35869;50.990;6.962;2023-04-15T15:19:42;101151.06;;;11.88;77.63
49979;BME280;35869;50.990;6.962;2023-04-15T15:24:42;101161.13;;;11.75;78.62
49979;BME280;35869;50.990;6.962;2023-04-15T15:29:43;101168.16;;;11.53;77.56
49979;BME280;35869;50.990;6.962;2023-04-15T15:34:43;101181.47;;;11.67;77.81
49979;BME280;35869;50.990;6.962;2023-04-15T15:39:43;101186.88;;;11.41;79.51
49979;BME280;35869;50.990;6.962;2023-04-15T15:44:44;101184.56;;;11.55;78.12
49979;BME280;35869;50.990;6.962;2023-04-15T15:49:44;101194.06;;;11.56;78.89
49979;BME280;35869;50.990;6.962;2023-04-15T15:54:44;101199.63;;;11.47;79.16
49979;BME280;35869;50.990;6.962;2023-04-15T15:59:45;101201.88;;;11.34;81.17
49979;BME280;35869;50.990;6.962;2023-04-15T16:04:45;101215.31;;;11.45;78.79
49979;BME280;35869;50.990;6.962;2023-04-15T16:09:45;101228.66;;;11.38;80.13
49979;BME280;35869;50.990;6.962;2023-04-15T16:14:45;101230.00;;;11.25;82.19
49979;BME280;35869;50.990;6.962;2023-04-15T16:19:45;101236.88;;;11.27;80.36
49979;BME280;35869;50.990;6.962;2023-04-15T16:24:46;101247.44;;;11.23;81.85
49979;BME280;35869;50.990;6.962;2023-04-15T16:29:46;101249.69;;;11.10;82.50
49979;BME280;35869;50.990;6.962;2023-04-15T16:34:46;101259.94;;;11.13;83.20
49979;BME280;35869;50.990;6.962;2023-04-15T16:39:46;101254.81;;;10.88;82.25
49979;BME280;35869;50.990;6.962;2023-04-15T16:44:47;101269.13;;;11.00;81.35
49979;BME280;35869;50.990;6.962;2023-04-15T16:49:47;101276.63;;;10.84;82.82
49979;BME280;35869;50.990;6.962;2023-04-15T16:54:47;101271.78;;;10.75;81.40
49979;BME280;35869;50.990;6.962;2023-04-15T16:59:47;101272.50;;;10.78;84.04
49979;BME280;35869;50.990;6.962;2023-04-15T17:04:47;101276.69;;;10.82;83.70
49979;BME280;35869;50.990;6.962;2023-04-15T17:09:48;101284.38;;;10.62;85.75
49979;BME280;35869;50.990;6.962;2023-04-15T17:14:48;101292.00;;;10.66;85.83
49979;BME280;35869;50.990;6.962;2023-04-15T17:19:48;101295.22;;;10.50;83.97
49979;BME280;35869;50.990;6.962;2023-04-15T17:24:49;101303.84;;;10.50;83.94
49979;BME280;35869;50.990;6.962;2023-04-15T17:29:49;101313.75;;;10.39;84.80
49979;BME280;35869;50.990;6.962;2023-04-15T17:34:49;101319.19;;;10.05;84.55
49979;BME280;35869;50.990;6.962;2023-04-15T17:39:49;101323.00;;;10.20;85.65
49979;BME280;35869;50.990;6.962;2023-04-15T17:44:49;101323.75;;;10.25;84.79
49979;BME280;35869;50.990;6.962;2023-04-15T17:49:50;101336.66;;;10.28;84.45
49979;BME280;35869;50.990;6.962;2023-04-15T17:54:50;101338.44;;;10.26;85.78
49979;BME280;35869;50.990;6.962;2023-04-15T17:59:50;101345.53;;;10.19;84.18
49979;BME280;35869;50.990;6.962;2023-04-15T18:04:50;101355.34;;;10.11;85.98
49979;BME280;35869;50.990;6.962;2023-04-15T18:09:51;101370.16;;;10.07;87.70
49979;BME280;35869;50.990;6.962;2023-04-15T18:14:51;101377.16;;;10.05;85.99
49979;BME280;35869;50.990;6.962;2023-04-15T18:19:52;101380.94;;;9.95;87.40
49979;BME280;35869;50.990;6.962;2023-04-15T18:24:52;101389.94;;;9.85;88.16
49979;BME280;35869;50.990;6.962;2023-04-15T18:29:52;101406.06;;;9.95;88.82
49979;BME280;35869;50.990;6.962;2023-04-15T18:34:52;101410.88;;;9.79;88.80
49979;BME280;35869;50.990;6.962;2023-04-15T18:39:52;101408.13;;;9.85;88.03
49979;BME280;35869;50.990;6.962;2023-04-15T18:44:54;101426.03;;;9.93;89.00
49979;BME280;35869;50.990;6.962;2023-04-15T18:49:54;101436.06;;;9.75;88.56
49979;BME280;35869;50.990;6.962;2023-04-15T18:54:54;101447.84;;;9.87;89.18
49979;BME280;35869;50.990;6.962;2023-04-15T18:59:54;101443.13;;;10.00;89.09
49979;BME280;35869;50.990;6.962;2023-04-15T19:04:54;101452.41;;;9.79;90.40
49979;BME280;35869;50.990;6.962;2023-04-15T19:09:55;101456.75;;;9.78;93.79
49979;BME280;35869;50.990;6.962;2023-04-15T19:14:55;101466.63;;;9.66;92.63
49979;BME280;35869;50.990;6.962;2023-04-15T19:19:55;101471.75;;;9.69;92.90
49979;BME280;35869;50.990;6.962;2023-04-15T19:24:55;101478.72;;;9.67;94.66
49979;BME280;35869;50.990;6.962;2023-04-15T19:29:56;101489.78;;;9.73;93.52
49979;BME280;35869;50.990;6.962;2023-04-15T19:34:56;101491.41;;;9.46;97.12
49979;BME280;35869;50.990;6.962;2023-04-15T19:39:56;101492.88;;;9.56;95.28
49979;BME280;35869;50.990;6.962;2023-04-15T19:44:56;101501.69;;;9.49;96.60
49979;BME280;35869;50.990;6.962;2023-04-15T19:49:57;101505.16;;;9.50;96.51
49979;BME280;35869;50.990;6.962;2023-04-15T19:54:57;101507.75;;;9.50;96.96
49979;BME280;35869;50.990;6.962;2023-04-15T19:59:57;101521.28;;;9.28;99.01
49979;BME280;35869;50.990;6.962;2023-04-15T20:04:57;101523.03;;;9.28;98.73
49979;BME280;35869;50.990;6.962;2023-04-15T20:09:57;101518.00;;;9.22;99.16
49979;BME280;35869;50.990;6.962;2023-04-15T20:14:58;101524.09;;;9.21;99.04
49979;BME280;35869;50.990;6.962;2023-04-15T20:19:58;101524.00;;;9.24;97.79
49979;BME280;35869;50.990;6.962;2023-04-15T20:25:02;101539.75;;;9.16;98.81
49979;BME280;35869;50.990;6.962;2023-04-15T20:30:03;101532.16;;;9.08;100.00
49979;BME280;35869;50.990;6.962;2023-04-15T20:35:04;101539.03;;;9.11;99.34
49979;BME280;35869;50.990;6.962;2023-04-15T20:40:05;101532.78;;;9.18;97.83
49979;BME280;35869;50.990;6.962;2023-04-15T20:45:06;101544.09;;;9.16;100.00
49979;BME280;35869;50.990;6.962;2023-04-15T20:50:07;101546.72;;;9.14;99.16
49979;BME280;35869;50.990;6.962;2023-04-15T20:55:07;101553.78;;;9.07;100.00
49979;BME280;35869;50.990;6.962;2023-04-15T21:00:08;101557.38;;;9.03;99.30
49979;BME280;35869;50.990;6.962;2023-04-15T21:05:08;101555.03;;;8.93;100.00
49979;BME280;35869;50.990;6.962;2023-04-15T21:10:09;101551.03;;;8.79;100.00
49979;BME280;35869;50.990;6.962;2023-04-15T21:15:09;101564.31;;;9.03;100.00
49979;BME280;35869;50.990;6.962;2023-04-15T21:20:10;101560.97;;;8.98;100.00
49979;BME280;35869;50.990;6.962;2023-04-15T21:25:10;101566.22;;;8.95;100.00
49979;BME280;35869;50.990;6.962;2023-04-15T21:30:11;101570.34;;;9.03;99.55
49979;BME280;35869;50.990;6.962;2023-04-15T21:35:11;101571.38;;;8.95;100.00
49979;BME280;35869;50.990;6.962;2023-04-15T21:40:12;101582.69;;;8.92;100.00
49979;BME280;35869;50.990;6.962;2023-04-15T21:45:12;101581.19;;;8.82;100.00
49979;BME280;35869;50.990;6.962;2023-04-15T21:50:12;101598.31;;;8.89;100.00
49979;BME280;35869;50.990;6.962;2023-04-15T21:55:13;101602.50;;;8.95;100.00
49979;BME280;35869;50.990;6.962;2023-04-15T22:00:13;101600.16;;;8.84;100.00
49979;BME280;35869;50.990;6.962;2023-04-15T22:05:14;101608.91;;;8.80;100.00
49979;BME280;35869;50.990;6.962;2023-04-15T22:10:14;101608.06;;;8.78;100.00
49979;BME280;35869;50.990;6.962;2023-04-15T22:15:15;101612.38;;;8.79;100.00
49979;BME280;35869;50.990;6.962;2023-04-15T22:20:15;101614.25;;;8.72;100.00
49979;BME280;35869;50.990;6.962;2023-04-15T22:25:16;101623.47;;;8.86;100.00
49979;BME280;35869;50.990;6.962;2023-04-15T22:30:16;101629.66;;;8.80;100.00
49979;BME280;35869;50.990;6.962;2023-04-15T22:35:16;101626.50;;;8.66;100.00
49979;BME280;35869;50.990;6.962;2023-04-15T22:40:16;101627.06;;;8.80;100.00
49979;BME280;35869;50.990;6.962;2023-04-15T22:45:17;101632.53;;;8.66;100.00
49979;BME280;35869;50.990;6.962;2023-04-15T22:50:17;101639.31;;;8.72;100.00
49979;BME280;35869;50.990;6.962;2023-04-15T22:55:18;101642.78;;;8.71;100.00
49979;BME280;35869;50.990;6.962;2023-04-15T23:00:18;101646.38;;;8.65;100.00
49979;BME280;35869;50.990;6.962;2023-04-15T23:05:18;101652.41;;;8.66;100.00
49979;BME280;35869;50.990;6.962;2023-04-15T23:10:18;101652.22;;;8.75;100.00
49979;BME280;35869;50.990;6.962;2023-04-15T23:15:18;101654.09;;;8.67;100.00
49979;BME280;35869;50.990;6.962;2023-04-15T23:20:19;101655.22;;;8.57;100.00
49979;BME280;35869;50.990;6.962;2023-04-15T23:25:19;101658.78;;;8.51;100.00
49979;BME280;35869;50.990;6.962;2023-04-15T23:30:19;101661.19;;;8.59;100.00
49979;BME280;35869;50.990;6.962;2023-04-15T23:35:19;101664.72;;;8.56;100.00
49979;BME280;35869;50.990;6.962;2023-04-15T23:40:19;101669.66;;;8.67;100.00
49979;BME280;35869;50.990;6.962;2023-04-15T23:45:20;101666.38;;;8.59;100.00
49979;BME280;35869;50.990;6.962;2023-04-15T23:50:20;101669.06;;;8.54;100.00
49979;BME280;35869;50.990;6.962;2023-04-15T23:55:20;101665.53;;;8.58;100.00
